createdAt,value
2022-12-01T00:02:55.038Z,45.30
2022-12-01T00:06:02.135Z,45.40
2022-12-01T00:09:22.546Z,52.50
2022-12-01T00:12:24.032Z,52.50
2022-12-01T00:15:28.035Z,46.90
2022-12-01T00:18:29.541Z,52.20
2022-12-01T00:21:31.183Z,47.00
2022-12-01T00:24:32.834Z,48.40
2022-12-01T00:27:34.255Z,53.00
2022-12-01T00:30:35.672Z,47.70
2022-12-01T00:33:37.848Z,50.00
2022-12-01T00:36:39.330Z,52.40
2022-12-01T00:39:40.791Z,54.90
2022-12-01T00:42:42.220Z,52.40
2022-12-01T00:45:43.765Z,45.60
2022-12-01T00:48:45.244Z,44.80
2022-12-01T00:51:46.685Z,51.10
2022-12-01T00:54:48.110Z,57.20
2022-12-01T00:57:49.517Z,61.70
2022-12-01T01:00:58.854Z,51.50
2022-12-01T01:04:00.266Z,45.90
2022-12-01T01:07:02.107Z,52.50
2022-12-01T01:10:04.330Z,53.50
2022-12-01T01:13:06.027Z,57.70
2022-12-01T01:16:14.205Z,42.80
2022-12-01T01:19:16.972Z,51.00
2022-12-01T01:22:19.056Z,48.90
2022-12-01T01:25:20.546Z,54.20
2022-12-01T01:28:21.956Z,46.30
2022-12-01T01:31:25.528Z,44.00
2022-12-01T01:34:27.052Z,44.30
2022-12-01T01:37:28.494Z,46.30
2022-12-01T01:40:29.884Z,55.50
2022-12-01T01:43:43.527Z,41.30
2022-12-01T01:46:45.019Z,45.50
2022-12-01T01:49:47.182Z,56.60
2022-12-01T01:52:55.146Z,47.10
2022-12-01T01:55:57.434Z,44.60
2022-12-01T01:58:59.433Z,51.20
2022-12-01T02:02:09.949Z,43.40
2022-12-01T02:05:18.448Z,45.90
2022-12-01T02:08:19.986Z,56.40
2022-12-01T02:11:52.399Z,47.80
2022-12-01T02:15:15.669Z,43.20
2022-12-01T02:18:22.209Z,45.20
2022-12-01T02:21:56.235Z,53.40
2022-12-01T02:25:07.565Z,52.00
2022-12-01T02:28:31.156Z,51.80
2022-12-01T02:31:40.918Z,50.90
2022-12-01T02:35:01.011Z,53.20
2022-12-01T02:38:17.516Z,58.30
2022-12-01T02:41:28.963Z,62.00
2022-12-01T02:44:38.407Z,50.00
2022-12-01T02:47:41.485Z,54.60
2022-12-01T02:50:45.904Z,56.80
2022-12-01T02:53:48.029Z,60.80
2022-12-01T02:56:52.978Z,62.00
2022-12-01T02:59:54.924Z,58.10
2022-12-01T03:03:16.746Z,53.40
2022-12-01T03:06:37.088Z,56.50
2022-12-01T03:09:53.415Z,63.10
2022-12-01T03:13:08.046Z,62.50
2022-12-01T03:16:12.651Z,50.40
2022-12-01T03:19:18.199Z,49.10
2022-12-01T03:22:26.681Z,61.40
2022-12-01T03:25:30.987Z,56.40
2022-12-01T03:28:42.914Z,54.00
2022-12-01T03:31:50.381Z,51.40
2022-12-01T03:34:59.891Z,55.80
2022-12-01T03:38:16.184Z,54.60
2022-12-01T03:41:25.015Z,59.60
2022-12-01T03:44:33.199Z,58.40
2022-12-01T03:47:37.075Z,52.40
2022-12-01T03:50:49.236Z,48.80
2022-12-01T03:54:05.411Z,56.80
2022-12-01T03:57:12.930Z,46.90
2022-12-01T04:00:17.170Z,47.70
2022-12-01T04:03:22.441Z,45.30
2022-12-01T04:06:23.953Z,53.00
2022-12-01T04:09:25.551Z,55.50
2022-12-01T04:12:29.937Z,56.00
2022-12-01T04:15:31.381Z,48.20
2022-12-01T04:18:32.713Z,52.00
2022-12-01T04:21:34.136Z,48.90
2022-12-01T04:24:35.481Z,58.00
2022-12-01T04:27:37.868Z,52.10
2022-12-01T04:30:39.351Z,46.90
2022-12-01T04:33:40.826Z,51.60
2022-12-01T04:36:42.326Z,50.20
2022-12-01T04:39:44.148Z,57.70
2022-12-01T04:42:45.562Z,52.60
2022-12-01T04:45:48.116Z,47.60
2022-12-01T04:48:51.652Z,42.20
2022-12-01T04:51:53.110Z,51.00
2022-12-01T04:54:54.585Z,50.60
2022-12-01T04:57:55.984Z,49.40
2022-12-01T05:01:08.762Z,45.40
2022-12-01T05:04:12.782Z,40.80
2022-12-01T05:07:14.200Z,47.00
2022-12-01T05:10:18.520Z,52.30
2022-12-01T05:13:19.905Z,47.80
2022-12-01T05:16:24.761Z,43.80
2022-12-01T05:19:45.095Z,44.60
2022-12-01T05:23:04.844Z,45.90
2022-12-01T05:26:08.716Z,52.60
2022-12-01T05:29:11.275Z,57.30
2022-12-01T05:32:12.747Z,43.90
2022-12-01T05:35:14.383Z,46.60
2022-12-01T05:38:17.940Z,51.70
2022-12-01T05:41:20.727Z,60.90
2022-12-01T05:44:22.237Z,53.40
2022-12-01T05:47:23.663Z,44.50
2022-12-01T05:50:27.178Z,41.00
2022-12-01T05:53:29.609Z,43.20
2022-12-01T05:56:31.041Z,43.60
2022-12-01T05:59:32.666Z,48.40
2022-12-01T06:02:34.133Z,43.20
2022-12-01T06:05:35.681Z,39.50
2022-12-01T06:08:37.085Z,40.30
2022-12-01T06:11:38.542Z,37.50
2022-12-01T06:14:41.972Z,43.60
2022-12-01T06:17:47.352Z,36.30
2022-12-01T06:20:48.899Z,38.30
2022-12-01T06:23:50.293Z,37.90
2022-12-01T06:26:51.871Z,43.10
2022-12-01T06:29:53.675Z,44.10
2022-12-01T06:32:55.333Z,38.10
2022-12-01T06:36:07.225Z,33.50
2022-12-01T06:39:12.289Z,34.30
2022-12-01T06:42:13.761Z,35.40
2022-12-01T06:45:15.424Z,36.20
2022-12-01T06:48:16.977Z,29.60
2022-12-01T06:51:18.499Z,31.20
2022-12-01T06:54:27.055Z,32.30
2022-12-01T06:57:31.114Z,35.00
2022-12-01T07:00:34.520Z,26.80
2022-12-01T07:03:38.394Z,29.30
2022-12-01T07:06:40.158Z,26.50
2022-12-01T07:09:41.830Z,31.10
2022-12-01T07:12:43.392Z,32.90
2022-12-01T07:15:51.446Z,43.00
2022-12-01T07:18:55.269Z,31.40
2022-12-01T07:25:21.859Z,34.20
2022-12-01T07:25:50.366Z,46.90
2022-12-01T07:29:02.729Z,50.70
2022-12-01T07:32:04.522Z,42.10
2022-12-01T07:35:06.258Z,32.90
2022-12-01T07:38:07.732Z,29.80
2022-12-01T07:41:14.475Z,27.00
2022-12-01T07:44:16.215Z,35.90
2022-12-01T07:47:17.793Z,33.00
2022-12-01T07:50:19.503Z,29.00
2022-12-01T07:53:21.149Z,29.40
2022-12-01T07:56:23.080Z,34.80
2022-12-01T07:59:25.090Z,40.70
2022-12-01T08:02:26.701Z,32.30
2022-12-01T08:05:28.304Z,33.50
2022-12-01T08:08:31.708Z,31.80
2022-12-01T08:11:33.390Z,27.50
2022-12-01T08:14:34.825Z,33.80
2022-12-01T08:17:36.574Z,35.70
2022-12-01T08:20:38.063Z,27.70
2022-12-01T08:23:41.530Z,30.70
2022-12-01T08:26:43.905Z,35.60
2022-12-01T08:29:45.457Z,34.30
2022-12-01T08:32:47.075Z,30.50
2022-12-01T08:35:48.566Z,36.00
2022-12-01T08:38:55.136Z,32.80
2022-12-01T08:41:56.732Z,38.70
2022-12-01T08:46:17.434Z,34.40
2022-12-01T08:50:56.502Z,35.00
2022-12-01T09:10:12.138Z,29.00
2022-12-01T12:47:43.888Z,35.70
2022-12-01T12:52:05.072Z,29.90
2022-12-01T15:10:37.448Z,38.80
2022-12-01T15:13:55.009Z,34.10
2022-12-01T15:17:03.559Z,29.50
2022-12-01T15:45:37.944Z,44.70
2022-12-01T15:48:51.296Z,35.70
2022-12-01T15:56:02.630Z,31.20
2022-12-01T15:59:35.326Z,30.30
2022-12-01T16:02:40.566Z,30.30
2022-12-01T16:05:45.408Z,30.30
2022-12-01T16:08:56.444Z,27.60
2022-12-01T16:12:12.585Z,28.50
2022-12-01T16:15:22.949Z,31.90
2022-12-01T16:18:33.216Z,35.20
2022-12-01T16:21:57.338Z,30.80
2022-12-01T16:25:04.790Z,31.70
2022-12-01T16:28:59.575Z,32.90
2022-12-01T16:32:21.370Z,30.30
2022-12-01T16:35:31.979Z,32.80
2022-12-01T16:38:38.153Z,32.40
2022-12-01T16:41:59.516Z,107.70
2022-12-01T16:45:03.073Z,66.60
2022-12-01T16:48:19.704Z,45.00
2022-12-01T16:51:30.037Z,34.80
2022-12-01T16:54:53.928Z,36.80
2022-12-01T16:57:58.035Z,33.20
2022-12-01T17:01:11.106Z,42.70
2022-12-01T17:04:20.788Z,37.60
2022-12-01T17:07:24.016Z,38.70
2022-12-01T17:10:30.784Z,36.80
2022-12-01T17:13:41.874Z,33.30
2022-12-01T17:16:48.229Z,36.60
2022-12-01T17:19:59.274Z,36.20
2022-12-01T17:23:30.573Z,32.80
2022-12-01T17:26:38.066Z,43.80
2022-12-01T17:29:46.988Z,38.30
2022-12-01T17:33:09.761Z,33.10
2022-12-01T17:36:15.525Z,35.00
2022-12-01T17:39:24.550Z,40.90
2022-12-01T17:42:35.986Z,34.80
2022-12-01T17:45:47.107Z,41.50
2022-12-01T17:48:58.719Z,39.20
2022-12-01T17:52:11.987Z,38.90
2022-12-01T17:55:20.922Z,37.00
2022-12-01T17:58:46.149Z,40.90
2022-12-01T18:02:04.293Z,34.90
2022-12-01T18:05:30.859Z,33.60
2022-12-01T18:08:55.543Z,39.60
2022-12-01T18:20:37.440Z,30.90
2022-12-01T18:24:45.566Z,34.20
2022-12-01T18:28:09.718Z,40.80
2022-12-01T18:39:39.103Z,31.80
2022-12-01T18:43:36.922Z,36.40
2022-12-01T18:52:16.214Z,31.80
2022-12-01T19:03:53.607Z,33.70
2022-12-01T19:05:44.468Z,34.50
2022-12-01T19:07:44.436Z,40.30
2022-12-01T19:12:12.696Z,34.20
2022-12-01T19:20:04.140Z,38.20
2022-12-01T19:21:24.929Z,30.50
2022-12-01T19:25:12.586Z,38.40
2022-12-01T19:29:17.158Z,32.90
2022-12-01T20:25:38.788Z,33.40
2022-12-01T20:36:15.269Z,34.30
2022-12-01T20:44:06.891Z,31.30
2022-12-01T20:48:00.487Z,30.60
2022-12-01T20:51:21.547Z,26.50
2022-12-01T20:54:31.014Z,28.00
2022-12-01T20:58:06.631Z,30.70
2022-12-01T21:01:29.388Z,32.70
2022-12-01T21:04:38.659Z,32.40
2022-12-01T21:08:06.483Z,30.40
2022-12-01T21:12:09.324Z,26.40
2022-12-01T21:16:09.586Z,33.10
2022-12-01T21:20:04.662Z,30.60
2022-12-01T21:27:33.123Z,26.90
2022-12-01T21:30:50.825Z,28.90
2022-12-01T21:34:02.920Z,27.90
2022-12-01T21:38:03.296Z,24.20
2022-12-01T21:41:56.266Z,26.50
2022-12-01T21:45:34.851Z,26.50
2022-12-01T21:48:39.165Z,25.90
2022-12-01T21:55:39.276Z,23.50
2022-12-01T21:59:42.186Z,29.80
2022-12-01T22:03:03.881Z,30.80
2022-12-01T22:10:56.110Z,30.00
2022-12-01T22:14:36.367Z,24.50
2022-12-01T22:18:59.142Z,27.20
2022-12-01T22:22:28.173Z,21.40
2022-12-01T22:25:57.303Z,24.80
2022-12-01T22:29:01.341Z,30.90
2022-12-01T22:32:32.201Z,28.20
2022-12-01T22:35:53.724Z,26.00
2022-12-01T22:39:03.017Z,29.50
2022-12-01T22:42:13.624Z,24.10
2022-12-01T22:45:24.076Z,26.80
2022-12-01T22:48:40.867Z,28.70
2022-12-01T22:51:50.625Z,28.80
2022-12-01T22:54:52.548Z,24.90
2022-12-01T22:57:57.580Z,26.40
2022-12-01T23:01:10.493Z,23.00
2022-12-01T23:04:32.736Z,24.70
2022-12-01T23:07:36.392Z,24.90
2022-12-01T23:10:39.716Z,22.90
2022-12-01T23:13:41.381Z,20.20
2022-12-01T23:16:43.039Z,23.30
2022-12-01T23:19:49.087Z,17.80
2022-12-01T23:22:56.569Z,22.80
2022-12-01T23:26:00.840Z,23.40
2022-12-01T23:29:02.464Z,21.10
2022-12-01T23:32:04.224Z,24.40
2022-12-01T23:35:13.159Z,23.70
2022-12-01T23:38:22.219Z,23.20
2022-12-01T23:41:38.284Z,26.20
2022-12-01T23:44:44.982Z,23.60
2022-12-01T23:47:47.101Z,21.20
2022-12-01T23:50:52.522Z,20.80
2022-12-01T23:53:56.874Z,24.60
2022-12-01T23:57:02.928Z,23.90
